Terminal Aerodrome Forecast
Issued by NWS Twin Cities, MN

Home | Current Version | Previous Version | Graphics & Text | Print | Product List | Glossary On
Versions: 1 2 3 4 5 6 7 8 9 10 11 12 13 14 15 16 17 18 19 20 21 22 23 24 25 26
000
FTUS43 KMPX 240857 AAC
TAFMSP
TAF AMD
KMSP 240857Z 2409/2512 22005KT P6SM SCT007 OVC015
      TEMPO 2409/2412 BKN009
     FM241400 26007KT P6SM FEW015 BKN025
     FM241600 29010KT P6SM FEW025 SCT200
     FM250200 27005KT P6SM SCT200=

USA.gov is the U.S. government's official web portal to all federal, state and local government web resources and services.